createdAt,value
2019-03-31T00:01:08.642Z,18.30
2019-03-31T00:03:37.446Z,18.20
2019-03-31T00:06:06.244Z,18.20
2019-03-31T00:08:34.932Z,18.20
2019-03-31T00:11:03.621Z,18.30
2019-03-31T00:13:32.168Z,18.20
2019-03-31T00:16:00.959Z,18.20
2019-03-31T00:18:29.549Z,18.20
2019-03-31T00:20:58.043Z,18.20
2019-03-31T00:23:26.582Z,18.20
2019-03-31T00:25:55.114Z,18.20
2019-03-31T00:28:23.751Z,18.20
2019-03-31T00:30:59.441Z,18.10
2019-03-31T00:33:32.049Z,18.00
2019-03-31T00:36:01.663Z,18.10
2019-03-31T00:38:33.469Z,17.90
2019-03-31T00:41:02.359Z,17.90
2019-03-31T00:43:31.146Z,17.90
2019-03-31T00:45:59.935Z,17.90
2019-03-31T00:48:28.608Z,18.00
2019-03-31T00:50:57.302Z,18.00
2019-03-31T00:53:25.768Z,18.00
2019-03-31T00:55:54.364Z,18.00
2019-03-31T00:58:23.142Z,18.00
2019-03-31T01:00:53.477Z,18.00
2019-03-31T01:03:22.267Z,18.00
2019-03-31T01:05:50.748Z,17.90
2019-03-31T01:08:19.431Z,17.90
2019-03-31T01:10:48.124Z,17.80
2019-03-31T01:13:18.128Z,17.70
2019-03-31T01:15:47.022Z,17.60
2019-03-31T01:18:15.903Z,17.60
2019-03-31T01:20:45.255Z,17.60
2019-03-31T01:23:14.107Z,17.60
2019-03-31T01:25:42.895Z,17.60
2019-03-31T01:28:11.694Z,17.50
2019-03-31T01:30:40.453Z,17.40
2019-03-31T01:33:09.034Z,17.40
2019-03-31T01:35:37.619Z,17.30
2019-03-31T01:38:06.403Z,17.30
2019-03-31T01:40:34.985Z,17.30
2019-03-31T01:43:03.568Z,17.30
2019-03-31T01:45:32.460Z,17.20
2019-03-31T01:48:01.247Z,17.10
2019-03-31T01:50:30.133Z,17.00
2019-03-31T01:52:58.841Z,17.00
2019-03-31T01:55:27.401Z,17.00
2019-03-31T01:57:56.187Z,17.00
2019-03-31T02:00:26.407Z,17.00
2019-03-31T02:02:55.296Z,17.10
2019-03-31T02:05:23.883Z,17.00
2019-03-31T02:07:52.461Z,17.10
2019-03-31T02:10:21.355Z,17.10
2019-03-31T02:12:50.039Z,17.00
2019-03-31T02:15:18.931Z,16.90
2019-03-31T02:17:47.711Z,16.90
2019-03-31T02:20:16.194Z,16.80
2019-03-31T02:22:44.877Z,16.70
2019-03-31T02:25:13.560Z,16.60
2019-03-31T02:27:42.141Z,16.80
2019-03-31T02:30:14.450Z,16.70
2019-03-31T02:32:43.727Z,16.60
2019-03-31T02:35:12.531Z,16.50
2019-03-31T02:37:41.436Z,16.50
2019-03-31T02:40:14.456Z,16.60
2019-03-31T02:42:43.081Z,16.40
2019-03-31T02:45:11.748Z,16.60
2019-03-31T02:47:40.630Z,16.40
2019-03-31T02:50:09.221Z,16.40
2019-03-31T02:52:38.006Z,16.50
2019-03-31T02:55:06.774Z,16.50
2019-03-31T02:57:35.468Z,16.40
2019-03-31T03:00:04.365Z,16.30
2019-03-31T03:02:41.326Z,16.20
2019-03-31T03:05:18.902Z,16.10
2019-03-31T03:07:35.746Z,16.20
2019-03-31T03:10:05.288Z,16.20
2019-03-31T03:12:34.144Z,16.20
2019-03-31T03:15:02.924Z,16.00
2019-03-31T03:17:31.708Z,16.00
2019-03-31T03:20:00.447Z,15.90
2019-03-31T03:22:29.193Z,15.90
2019-03-31T03:24:57.871Z,16.00
2019-03-31T03:27:26.653Z,15.90
2019-03-31T03:29:55.339Z,15.80
2019-03-31T03:32:24.058Z,15.60
2019-03-31T03:34:52.815Z,15.60
2019-03-31T03:37:21.604Z,15.70
2019-03-31T03:39:50.173Z,15.70
2019-03-31T03:42:18.757Z,15.60
2019-03-31T03:44:47.427Z,15.60
2019-03-31T03:47:16.231Z,15.60
2019-03-31T03:49:44.915Z,15.50
2019-03-31T03:52:13.419Z,15.50
2019-03-31T03:54:42.192Z,15.40
2019-03-31T03:57:10.867Z,15.30
2019-03-31T03:59:39.665Z,15.20
2019-03-31T04:02:08.423Z,15.20
2019-03-31T04:04:37.121Z,15.10
2019-03-31T04:07:05.704Z,15.00
2019-03-31T04:09:34.286Z,14.90
2019-03-31T04:12:03.086Z,14.90
2019-03-31T04:14:31.749Z,14.90
2019-03-31T04:17:00.552Z,14.90
2019-03-31T04:19:29.234Z,14.80
2019-03-31T04:21:57.920Z,14.80
2019-03-31T04:24:26.602Z,14.70
2019-03-31T04:26:55.384Z,14.70
2019-03-31T04:29:23.976Z,14.70
2019-03-31T04:31:52.758Z,14.70
2019-03-31T04:34:21.548Z,14.80
2019-03-31T04:36:50.238Z,14.70
2019-03-31T04:39:19.013Z,14.70
2019-03-31T04:41:47.560Z,14.60
2019-03-31T04:44:16.372Z,14.50
2019-03-31T04:46:45.170Z,14.50
2019-03-31T04:49:13.754Z,14.60
2019-03-31T04:51:42.215Z,14.70
2019-03-31T04:54:10.914Z,14.70
2019-03-31T04:56:39.497Z,14.70
2019-03-31T04:59:08.078Z,14.80
2019-03-31T05:01:36.855Z,14.80
2019-03-31T05:04:05.728Z,14.70
2019-03-31T05:06:34.655Z,14.70
2019-03-31T05:09:06.092Z,14.70
2019-03-31T05:11:35.001Z,14.60
2019-03-31T05:14:03.891Z,14.70
2019-03-31T05:16:32.674Z,14.70
2019-03-31T05:19:01.219Z,14.70
2019-03-31T05:21:29.812Z,14.70
2019-03-31T05:23:58.326Z,14.60
2019-03-31T05:26:27.093Z,14.60
2019-03-31T05:28:55.779Z,14.60
2019-03-31T05:31:24.460Z,14.50
2019-03-31T05:33:53.243Z,14.50
2019-03-31T05:36:21.827Z,14.60
2019-03-31T05:38:50.617Z,14.60
2019-03-31T05:41:19.204Z,14.60
2019-03-31T05:43:47.889Z,14.70
2019-03-31T05:46:16.493Z,14.60
2019-03-31T05:48:45.155Z,14.70
2019-03-31T05:51:13.941Z,14.60
2019-03-31T05:53:42.515Z,14.50
2019-03-31T05:56:11.099Z,14.50
2019-03-31T05:58:39.567Z,14.70
2019-03-31T06:01:08.266Z,14.60
2019-03-31T06:03:37.101Z,14.60
2019-03-31T06:06:05.944Z,14.70
2019-03-31T06:08:34.729Z,14.60
2019-03-31T06:11:03.627Z,14.40
2019-03-31T06:13:32.297Z,14.50
2019-03-31T06:16:00.986Z,14.50
2019-03-31T06:18:29.681Z,14.50
2019-03-31T06:20:58.458Z,14.60
2019-03-31T06:23:27.259Z,14.50
2019-03-31T06:25:55.921Z,14.50
2019-03-31T06:28:24.736Z,14.60
2019-03-31T06:30:53.388Z,14.50
2019-03-31T06:33:21.928Z,14.60
2019-03-31T06:35:50.461Z,14.60
2019-03-31T06:38:19.147Z,14.60
2019-03-31T06:40:52.244Z,14.70
2019-03-31T06:43:20.946Z,14.60
2019-03-31T06:45:49.404Z,14.70
2019-03-31T06:48:18.219Z,14.80
2019-03-31T06:50:46.804Z,15.00
2019-03-31T06:53:15.561Z,14.90
2019-03-31T06:55:44.123Z,14.90
2019-03-31T06:58:12.828Z,14.90
2019-03-31T07:00:41.620Z,14.90
2019-03-31T07:03:10.507Z,15.00
2019-03-31T07:05:39.199Z,15.10
2019-03-31T07:08:09.750Z,15.00
2019-03-31T07:10:38.598Z,15.00
2019-03-31T07:13:07.182Z,14.90
2019-03-31T07:15:35.765Z,15.10
2019-03-31T07:18:04.344Z,15.20
2019-03-31T07:20:33.237Z,15.10
2019-03-31T07:23:02.023Z,15.20
2019-03-31T07:25:30.710Z,15.30
2019-03-31T07:27:59.499Z,15.40
2019-03-31T07:30:28.182Z,15.50
2019-03-31T07:32:56.869Z,15.50
2019-03-31T07:35:25.759Z,15.60
2019-03-31T07:37:54.439Z,15.70
2019-03-31T07:40:23.380Z,15.50
2019-03-31T07:42:52.396Z,15.70
2019-03-31T07:45:21.323Z,15.50
2019-03-31T07:47:49.993Z,15.50
2019-03-31T07:50:18.983Z,15.60
2019-03-31T07:52:47.669Z,15.40
2019-03-31T07:55:16.215Z,15.50
2019-03-31T07:57:44.942Z,15.40
2019-03-31T08:00:16.227Z,15.40
2019-03-31T08:02:44.853Z,15.30
2019-03-31T08:05:13.547Z,15.40
2019-03-31T08:07:42.118Z,15.30
2019-03-31T08:10:11.315Z,15.10
2019-03-31T08:12:40.013Z,15.20
2019-03-31T08:15:12.105Z,15.20
2019-03-31T08:17:42.762Z,15.20
2019-03-31T08:20:17.331Z,15.30
2019-03-31T08:22:45.843Z,15.30
2019-03-31T08:25:14.497Z,15.20
2019-03-31T08:27:43.080Z,15.20
2019-03-31T08:30:13.312Z,15.30
2019-03-31T08:32:41.877Z,15.40
2019-03-31T08:35:10.664Z,15.30
2019-03-31T08:37:39.378Z,15.40
2019-03-31T08:40:09.931Z,15.40
2019-03-31T08:42:38.770Z,15.30
2019-03-31T08:45:07.601Z,15.30
2019-03-31T08:47:36.651Z,15.30
2019-03-31T08:50:06.987Z,15.20
2019-03-31T08:52:35.665Z,15.30
2019-03-31T08:55:04.763Z,15.30
2019-03-31T08:57:33.783Z,15.30
2019-03-31T09:00:02.543Z,15.40
2019-03-31T09:02:32.896Z,15.60
2019-03-31T09:05:06.164Z,15.40
2019-03-31T09:07:34.757Z,15.40
2019-03-31T09:10:04.242Z,15.30
2019-03-31T09:12:32.928Z,15.20
2019-03-31T09:15:01.600Z,15.10
2019-03-31T09:17:30.196Z,15.10
2019-03-31T09:19:58.865Z,15.00
2019-03-31T09:22:27.447Z,14.90
2019-03-31T09:24:55.994Z,15.00
2019-03-31T09:27:24.629Z,14.80
2019-03-31T09:29:53.295Z,14.80
2019-03-31T09:32:21.980Z,14.80
2019-03-31T09:34:50.769Z,14.90
2019-03-31T09:37:19.339Z,14.90
2019-03-31T09:39:47.931Z,15.00
2019-03-31T09:42:16.616Z,15.00
2019-03-31T09:44:45.513Z,15.00
2019-03-31T09:47:14.293Z,15.00
2019-03-31T09:49:42.982Z,14.90
2019-03-31T09:52:11.661Z,14.80
2019-03-31T09:54:41.269Z,15.00
2019-03-31T09:57:10.054Z,15.20
2019-03-31T09:59:38.669Z,15.30
2019-03-31T10:02:07.423Z,15.40
2019-03-31T10:04:36.219Z,15.20
2019-03-31T10:07:05.013Z,15.50
2019-03-31T10:09:33.887Z,15.50
2019-03-31T10:12:02.884Z,15.50
2019-03-31T10:14:31.884Z,15.60
2019-03-31T10:17:00.563Z,15.50
2019-03-31T10:19:29.357Z,15.70
2019-03-31T10:21:57.930Z,15.50
2019-03-31T10:24:26.717Z,15.50
2019-03-31T10:26:55.399Z,15.60
2019-03-31T10:29:24.088Z,15.60
2019-03-31T10:31:52.869Z,15.40
2019-03-31T10:34:21.667Z,15.60
2019-03-31T10:36:50.447Z,15.70
2019-03-31T10:39:19.239Z,15.70
2019-03-31T10:41:48.022Z,15.70
2019-03-31T10:44:16.808Z,15.70
2019-03-31T10:46:45.704Z,15.60
2019-03-31T10:49:14.483Z,15.70
2019-03-31T10:51:43.156Z,15.90
2019-03-31T10:54:11.855Z,16.30
2019-03-31T10:56:40.574Z,16.40
2019-03-31T10:59:09.317Z,16.50
2019-03-31T11:01:38.002Z,16.20
2019-03-31T11:04:06.586Z,16.10
2019-03-31T11:06:35.270Z,16.20
2019-03-31T11:09:05.902Z,16.20
2019-03-31T11:11:34.481Z,16.30
2019-03-31T11:14:03.160Z,16.50
2019-03-31T11:16:31.749Z,16.70
2019-03-31T11:19:00.432Z,16.80
2019-03-31T11:21:30.748Z,16.80
2019-03-31T11:23:59.442Z,17.00
2019-03-31T11:26:28.231Z,17.20
2019-03-31T11:28:57.171Z,17.40
2019-03-31T11:31:25.975Z,17.60
2019-03-31T11:33:54.794Z,18.00
2019-03-31T11:36:23.580Z,18.20
2019-03-31T11:38:52.367Z,18.60
2019-03-31T11:41:21.259Z,18.60
2019-03-31T11:43:49.942Z,18.80
2019-03-31T11:46:18.733Z,18.70
2019-03-31T11:48:47.521Z,18.40
2019-03-31T11:51:16.097Z,18.40
2019-03-31T11:53:46.445Z,18.20
2019-03-31T11:56:22.485Z,18.10
2019-03-31T11:58:51.367Z,18.00
2019-03-31T12:01:20.268Z,18.20
2019-03-31T12:03:49.056Z,18.40
2019-03-31T12:06:17.727Z,18.40
2019-03-31T12:08:46.616Z,18.40
2019-03-31T12:11:15.306Z,18.30
2019-03-31T12:13:43.972Z,18.10
2019-03-31T12:16:12.673Z,18.10
2019-03-31T12:18:41.460Z,18.00
2019-03-31T12:21:10.025Z,18.00
2019-03-31T12:23:38.626Z,17.80
2019-03-31T12:26:07.397Z,17.80
2019-03-31T12:28:36.093Z,17.80
2019-03-31T12:31:04.768Z,17.60
2019-03-31T12:33:33.366Z,17.90
2019-03-31T12:36:02.048Z,18.20
2019-03-31T12:38:30.728Z,18.50
2019-03-31T12:40:59.199Z,18.30
2019-03-31T12:43:27.795Z,18.50
2019-03-31T12:45:56.681Z,18.70
2019-03-31T12:48:25.368Z,18.50
2019-03-31T12:50:54.052Z,18.90
2019-03-31T12:53:22.838Z,18.80
2019-03-31T12:56:00.067Z,18.80
2019-03-31T12:58:21.950Z,19.00
2019-03-31T13:00:51.969Z,19.10
2019-03-31T13:03:20.547Z,19.10
2019-03-31T13:05:49.124Z,19.00
2019-03-31T13:08:17.716Z,19.20
2019-03-31T13:10:46.712Z,19.30
2019-03-31T13:13:15.383Z,19.50
2019-03-31T13:15:44.069Z,19.60
2019-03-31T13:18:12.757Z,19.70
2019-03-31T13:20:41.551Z,19.70
2019-03-31T13:23:10.331Z,19.50
2019-03-31T13:25:39.127Z,19.40
2019-03-31T13:28:07.810Z,19.30
2019-03-31T13:30:36.500Z,19.20
2019-03-31T13:33:05.271Z,19.00
2019-03-31T13:35:33.768Z,18.80
2019-03-31T13:38:10.915Z,18.80
2019-03-31T13:40:33.374Z,18.60
2019-03-31T13:43:01.944Z,18.60
2019-03-31T13:45:32.175Z,18.50
2019-03-31T13:48:00.963Z,18.60
2019-03-31T13:50:29.636Z,18.50
2019-03-31T13:52:58.227Z,18.50
2019-03-31T13:55:27.021Z,18.50
2019-03-31T13:57:58.085Z,18.40
2019-03-31T14:00:39.459Z,18.40
2019-03-31T14:03:08.367Z,18.60
2019-03-31T14:05:37.227Z,18.60
2019-03-31T14:08:06.115Z,18.70
2019-03-31T14:10:35.003Z,18.70
2019-03-31T14:13:04.306Z,18.70
2019-03-31T14:15:32.990Z,18.50
2019-03-31T14:18:01.675Z,18.40
2019-03-31T14:20:30.364Z,18.60
2019-03-31T14:22:59.038Z,18.50
2019-03-31T14:25:28.030Z,18.40
2019-03-31T14:27:56.919Z,18.50
2019-03-31T14:30:25.601Z,18.60
2019-03-31T14:32:54.406Z,18.50
2019-03-31T14:35:23.179Z,18.70
2019-03-31T14:37:51.747Z,18.70
2019-03-31T14:40:20.286Z,18.80
2019-03-31T14:42:48.920Z,18.90
2019-03-31T14:45:34.139Z,19.00
2019-03-31T14:48:02.783Z,18.90
2019-03-31T14:50:35.765Z,19.00
2019-03-31T14:53:04.866Z,18.90
2019-03-31T14:55:33.652Z,18.90
2019-03-31T14:58:02.333Z,19.00
2019-03-31T15:00:31.316Z,19.20
2019-03-31T15:03:00.208Z,19.40
2019-03-31T15:05:28.890Z,19.70
2019-03-31T15:07:58.628Z,19.80
2019-03-31T15:10:27.590Z,20.00
2019-03-31T15:12:56.274Z,20.20
2019-03-31T15:15:24.960Z,20.30
2019-03-31T15:17:53.850Z,20.30
2019-03-31T15:20:22.635Z,20.40
2019-03-31T15:22:51.523Z,20.40
2019-03-31T15:25:20.517Z,20.40
2019-03-31T15:27:49.307Z,20.50
2019-03-31T15:30:18.003Z,20.70
2019-03-31T15:32:46.678Z,20.70
2019-03-31T15:35:15.465Z,20.80
2019-03-31T15:37:44.246Z,20.80
2019-03-31T15:40:12.828Z,20.90
2019-03-31T15:42:41.616Z,20.90
2019-03-31T15:45:10.431Z,20.90
2019-03-31T15:47:39.104Z,20.90
2019-03-31T15:50:07.669Z,20.90
2019-03-31T15:52:36.344Z,20.70
2019-03-31T15:55:07.997Z,20.60
2019-03-31T15:57:36.744Z,20.70
2019-03-31T16:00:08.668Z,20.90
2019-03-31T16:02:37.335Z,20.70
2019-03-31T16:05:12.438Z,20.40
2019-03-31T16:07:39.527Z,20.20
2019-03-31T16:10:08.096Z,20.10
2019-03-31T16:12:36.902Z,19.80
2019-03-31T16:15:06.101Z,19.40
2019-03-31T16:17:34.914Z,19.20
2019-03-31T16:20:04.080Z,19.00
2019-03-31T16:22:32.976Z,19.10
2019-03-31T16:25:03.491Z,18.80
2019-03-31T16:27:32.080Z,18.80
2019-03-31T16:30:00.771Z,18.40
2019-03-31T16:32:29.356Z,18.50
2019-03-31T16:34:58.124Z,18.60
2019-03-31T16:37:26.812Z,18.50
2019-03-31T16:39:55.376Z,18.60
2019-03-31T16:42:24.183Z,18.60
2019-03-31T16:44:58.407Z,18.50
2019-03-31T16:47:22.966Z,18.50
2019-03-31T16:49:51.683Z,18.40
2019-03-31T16:52:20.451Z,18.50
2019-03-31T16:54:49.136Z,18.40
2019-03-31T16:57:17.822Z,18.20
2019-03-31T16:59:46.405Z,18.00
2019-03-31T17:02:14.888Z,18.00
2019-03-31T17:04:43.572Z,17.90
2019-03-31T17:07:12.271Z,17.70
2019-03-31T17:09:50.925Z,17.80
2019-03-31T17:12:11.258Z,17.70
2019-03-31T17:14:40.151Z,17.60
2019-03-31T17:17:08.835Z,17.50
2019-03-31T17:19:37.722Z,17.30
2019-03-31T17:22:06.404Z,17.20
2019-03-31T17:24:35.287Z,17.20
2019-03-31T17:27:03.980Z,17.30
2019-03-31T17:29:32.524Z,17.40
2019-03-31T17:32:01.145Z,17.50
2019-03-31T17:34:29.935Z,17.40
2019-03-31T17:36:58.617Z,17.30
2019-03-31T17:39:27.305Z,17.30
2019-03-31T17:41:55.971Z,17.30
2019-03-31T17:44:24.672Z,17.20
2019-03-31T17:46:53.251Z,17.20
2019-03-31T17:49:21.936Z,17.20
2019-03-31T17:51:50.620Z,17.20
2019-03-31T17:54:19.509Z,17.10
2019-03-31T17:56:48.091Z,17.30
2019-03-31T17:59:16.673Z,17.00
2019-03-31T18:01:45.272Z,17.10
2019-03-31T18:04:13.787Z,16.80
2019-03-31T18:06:42.529Z,16.70
2019-03-31T18:09:11.212Z,16.60
2019-03-31T18:11:39.760Z,16.50
2019-03-31T18:14:10.118Z,16.60
2019-03-31T18:16:38.679Z,16.40
2019-03-31T18:19:07.473Z,16.20
2019-03-31T18:21:36.185Z,16.30
2019-03-31T18:24:04.768Z,16.30
2019-03-31T18:26:33.432Z,16.30
2019-03-31T18:29:02.017Z,16.30
2019-03-31T18:31:30.600Z,16.40
2019-03-31T18:33:59.285Z,16.30
2019-03-31T18:36:36.380Z,16.20
2019-03-31T18:38:58.190Z,16.10
2019-03-31T18:41:26.978Z,16.10
2019-03-31T18:43:55.684Z,16.10
2019-03-31T18:46:24.392Z,16.10
2019-03-31T18:48:53.135Z,16.00
2019-03-31T18:51:22.038Z,16.10
2019-03-31T18:53:52.373Z,16.10
2019-03-31T18:56:31.142Z,16.00
2019-03-31T18:59:10.608Z,16.00
2019-03-31T19:01:49.951Z,15.80
2019-03-31T19:04:29.181Z,15.80
2019-03-31T19:07:02.429Z,15.80
2019-03-31T19:09:38.723Z,15.80
2019-03-31T19:12:20.909Z,15.70
2019-03-31T19:15:09.168Z,15.70
2019-03-31T19:17:54.814Z,15.60
2019-03-31T19:20:41.356Z,15.60
2019-03-31T19:23:28.066Z,15.60
2019-03-31T19:26:14.561Z,15.50
2019-03-31T19:28:50.516Z,15.50
2019-03-31T19:31:20.848Z,15.40
2019-03-31T19:33:57.003Z,15.40
2019-03-31T19:36:29.783Z,15.50
2019-03-31T19:39:02.874Z,15.40
2019-03-31T19:41:42.381Z,15.50
2019-03-31T19:44:19.696Z,15.40
2019-03-31T19:46:53.392Z,15.30
2019-03-31T19:49:24.361Z,15.40
2019-03-31T19:52:12.921Z,15.50
2019-03-31T19:54:49.146Z,15.40
2019-03-31T19:57:31.675Z,15.40
2019-03-31T20:00:12.219Z,15.30
2019-03-31T20:02:45.400Z,15.20
2019-03-31T20:05:21.669Z,15.10
2019-03-31T20:08:08.374Z,15.00
2019-03-31T20:10:41.160Z,15.00
2019-03-31T20:13:27.658Z,15.00
2019-03-31T20:16:02.644Z,14.80
2019-03-31T20:18:35.066Z,14.90
2019-03-31T20:21:30.982Z,14.80
2019-03-31T20:24:04.468Z,14.90
2019-03-31T20:26:43.716Z,14.90
2019-03-31T20:29:23.155Z,14.70
2019-03-31T20:31:56.358Z,14.70
2019-03-31T20:34:26.664Z,14.80
2019-03-31T20:37:07.439Z,14.60
2019-03-31T20:39:37.530Z,14.70
2019-03-31T20:42:10.549Z,14.60
2019-03-31T20:44:39.224Z,14.50
2019-03-31T20:47:07.906Z,14.70
2019-03-31T20:49:36.590Z,14.70
2019-03-31T20:52:05.176Z,14.80
2019-03-31T20:54:33.862Z,14.70
2019-03-31T20:57:02.951Z,14.80
2019-03-31T20:59:31.607Z,14.80
2019-03-31T21:02:00.371Z,14.70
2019-03-31T21:04:28.910Z,14.60
2019-03-31T21:06:57.475Z,14.60
2019-03-31T21:09:26.075Z,14.60
2019-03-31T21:11:54.697Z,14.50
2019-03-31T21:14:23.234Z,14.50
2019-03-31T21:16:51.919Z,14.60
2019-03-31T21:19:20.807Z,14.40
2019-03-31T21:21:49.996Z,14.60
2019-03-31T21:24:18.690Z,14.50
2019-03-31T21:26:47.478Z,14.40
2019-03-31T21:29:16.161Z,14.50
2019-03-31T21:31:44.698Z,14.40
2019-03-31T21:34:13.528Z,14.40
2019-03-31T21:36:42.312Z,14.30
2019-03-31T21:39:10.887Z,14.40
2019-03-31T21:41:39.482Z,14.40
2019-03-31T21:44:08.137Z,14.40
2019-03-31T21:46:36.750Z,14.30
2019-03-31T21:49:05.324Z,14.30
2019-03-31T21:51:35.225Z,14.20
2019-03-31T21:54:03.924Z,14.40
2019-03-31T21:56:32.607Z,14.30
2019-03-31T21:59:01.176Z,14.20
2019-03-31T22:01:30.081Z,14.00
2019-03-31T22:03:58.756Z,14.10
2019-03-31T22:06:27.304Z,14.00
2019-03-31T22:08:55.937Z,14.00
2019-03-31T22:11:24.616Z,14.00
2019-03-31T22:13:53.302Z,14.00
2019-03-31T22:16:21.883Z,13.80
2019-03-31T22:18:50.676Z,13.80
2019-03-31T22:21:19.374Z,13.80
2019-03-31T22:23:57.755Z,13.70
2019-03-31T22:26:19.814Z,13.70
2019-03-31T22:28:48.591Z,13.60
2019-03-31T22:31:17.474Z,13.70
2019-03-31T22:33:45.955Z,13.70
2019-03-31T22:36:24.473Z,13.70
2019-03-31T22:38:53.553Z,13.70
2019-03-31T22:41:22.154Z,13.70
2019-03-31T22:43:50.929Z,13.70
2019-03-31T22:46:19.716Z,13.60
2019-03-31T22:48:48.295Z,13.50
2019-03-31T22:51:16.812Z,13.50
2019-03-31T22:53:45.462Z,13.40
2019-03-31T22:56:14.052Z,13.40
2019-03-31T22:58:42.625Z,13.40
2019-03-31T23:01:11.311Z,13.50
2019-03-31T23:03:40.104Z,13.30
2019-03-31T23:06:08.684Z,13.20
2019-03-31T23:08:37.145Z,13.20
2019-03-31T23:11:05.875Z,13.30
2019-03-31T23:13:34.430Z,13.20
2019-03-31T23:16:03.096Z,13.10
2019-03-31T23:18:33.437Z,13.10
2019-03-31T23:21:02.128Z,13.10
2019-03-31T23:23:30.811Z,12.90
2019-03-31T23:25:59.432Z,12.80
2019-03-31T23:28:27.967Z,12.80
2019-03-31T23:30:56.546Z,12.80
2019-03-31T23:33:25.939Z,12.80
2019-03-31T23:35:54.837Z,12.70
2019-03-31T23:38:23.420Z,12.90
2019-03-31T23:40:52.208Z,12.70
2019-03-31T23:43:20.951Z,12.70
2019-03-31T23:45:49.579Z,12.70
2019-03-31T23:48:18.260Z,12.60
2019-03-31T23:50:46.843Z,12.60
2019-03-31T23:53:15.527Z,12.50
2019-03-31T23:55:44.008Z,12.60
2019-03-31T23:58:12.694Z,12.40
